createdAt,value
2019-03-19T00:01:34.703Z,62.97
2019-03-19T00:04:02.241Z,65.77
2019-03-19T00:06:29.845Z,68.53
2019-03-19T00:08:57.717Z,67.67
2019-03-19T00:11:25.286Z,64.30
2019-03-19T00:13:53.388Z,78.63
2019-03-19T00:16:20.980Z,66.30
2019-03-19T00:18:48.535Z,53.97
2019-03-19T00:21:16.093Z,65.77
2019-03-19T00:23:44.024Z,59.57
2019-03-19T00:26:11.794Z,60.37
2019-03-19T00:28:39.354Z,61.90
2019-03-19T00:31:08.072Z,72.73
2019-03-19T00:33:35.748Z,77.40
2019-03-19T00:36:03.641Z,84.80
2019-03-19T00:38:31.200Z,86.30
2019-03-19T00:40:58.657Z,77.17
2019-03-19T00:43:26.213Z,68.00
2019-03-19T00:45:54.006Z,56.40
2019-03-19T00:48:21.565Z,52.60
2019-03-19T00:50:49.131Z,49.60
2019-03-19T00:53:17.403Z,62.43
2019-03-19T00:55:44.849Z,57.90
2019-03-19T00:58:12.309Z,60.40
2019-03-19T01:00:40.168Z,45.50
2019-03-19T01:03:07.934Z,51.40
2019-03-19T01:05:35.735Z,53.20
2019-03-19T01:08:03.501Z,49.47
2019-03-19T01:10:31.182Z,42.20
2019-03-19T01:12:59.086Z,50.63
2019-03-19T01:15:26.658Z,38.73
2019-03-19T01:17:54.940Z,41.27
2019-03-19T01:20:22.391Z,42.53
2019-03-19T01:22:50.066Z,44.43
2019-03-19T01:25:18.784Z,46.53
2019-03-19T01:27:46.669Z,42.50
2019-03-19T01:30:14.214Z,59.33
2019-03-19T01:32:41.821Z,50.87
2019-03-19T01:35:09.281Z,54.10
2019-03-19T01:37:36.780Z,60.17
2019-03-19T01:40:04.706Z,56.47
2019-03-19T01:42:33.168Z,73.40
2019-03-19T01:45:00.737Z,75.90
2019-03-19T01:47:28.311Z,78.63
2019-03-19T01:49:55.873Z,88.87
2019-03-19T01:52:23.458Z,77.17
2019-03-19T01:54:51.025Z,78.97
2019-03-19T01:57:18.582Z,72.77
2019-03-19T01:59:46.077Z,77.50
2019-03-19T02:04:55.454Z,69.63
2019-03-19T02:07:23.702Z,65.30
2019-03-19T02:09:51.295Z,61.40
2019-03-19T02:12:18.970Z,64.17
2019-03-19T02:14:46.994Z,68.37
2019-03-19T02:17:14.567Z,54.33
2019-03-19T02:19:42.151Z,55.53
2019-03-19T02:22:09.685Z,51.77
2019-03-19T02:24:37.287Z,46.37
2019-03-19T02:27:04.842Z,53.60
2019-03-19T02:29:32.429Z,47.07
2019-03-19T02:32:00.391Z,44.33
2019-03-19T02:34:28.345Z,47.53
2019-03-19T02:36:55.924Z,50.50
2019-03-19T02:39:23.611Z,63.43
2019-03-19T02:41:51.471Z,66.03
2019-03-19T02:44:19.059Z,67.23
2019-03-19T02:46:47.735Z,72.10
2019-03-19T02:49:16.170Z,68.93
2019-03-19T02:51:43.753Z,72.90
2019-03-19T02:54:11.325Z,82.77
2019-03-19T02:56:38.904Z,85.10
2019-03-19T02:59:06.464Z,83.33
2019-03-19T03:01:33.950Z,84.83
2019-03-19T03:04:01.512Z,80.37
2019-03-19T03:06:29.081Z,94.77
2019-03-19T03:08:56.968Z,88.57
2019-03-19T03:11:24.779Z,83.10
2019-03-19T03:13:52.337Z,81.70
2019-03-19T03:16:20.025Z,101.20
2019-03-19T03:18:47.603Z,84.90
2019-03-19T03:21:15.502Z,81.97
2019-03-19T03:23:43.109Z,91.57
2019-03-19T03:26:10.639Z,92.73
2019-03-19T03:28:38.582Z,115.47
2019-03-19T03:31:06.166Z,130.53
2019-03-19T03:33:34.000Z,114.00
2019-03-19T03:36:01.887Z,115.53
2019-03-19T03:38:29.425Z,116.70
2019-03-19T03:40:57.283Z,117.10
2019-03-19T03:43:24.737Z,110.10
2019-03-19T03:45:52.391Z,102.17
2019-03-19T03:48:19.861Z,90.77
2019-03-19T03:50:48.636Z,87.97
2019-03-19T03:53:16.349Z,86.37
2019-03-19T03:55:43.896Z,76.87
2019-03-19T03:58:11.474Z,90.20
2019-03-19T04:00:39.433Z,92.40
2019-03-19T04:03:07.664Z,87.27
2019-03-19T04:05:35.477Z,81.67
2019-03-19T04:08:03.230Z,93.00
2019-03-19T04:10:30.914Z,107.83
2019-03-19T04:12:58.470Z,93.90
2019-03-19T04:15:27.132Z,92.60
2019-03-19T04:17:54.696Z,93.40
2019-03-19T04:20:22.475Z,86.63
2019-03-19T04:22:50.038Z,89.83
2019-03-19T04:25:17.628Z,87.50
2019-03-19T04:27:45.219Z,92.43
2019-03-19T04:30:12.834Z,87.20
2019-03-19T04:32:40.712Z,101.50
2019-03-19T04:35:08.408Z,104.93
2019-03-19T04:37:36.007Z,131.77
2019-03-19T04:40:04.449Z,125.93
2019-03-19T04:42:32.042Z,121.73
2019-03-19T04:44:59.621Z,115.93
2019-03-19T04:47:27.225Z,130.20
2019-03-19T04:49:54.771Z,139.87
2019-03-19T04:52:22.362Z,131.27
2019-03-19T04:54:49.918Z,129.63
2019-03-19T04:57:26.367Z,132.47
2019-03-19T04:59:46.853Z,134.37
2019-03-19T05:02:14.644Z,135.43
2019-03-19T05:04:42.214Z,157.23
2019-03-19T05:07:10.973Z,153.10
2019-03-19T05:09:38.551Z,146.13
2019-03-19T05:12:06.153Z,154.47
2019-03-19T05:14:33.608Z,146.97
2019-03-19T05:17:01.525Z,142.90
2019-03-19T05:19:29.067Z,152.70
2019-03-19T05:21:56.544Z,139.50
2019-03-19T05:24:24.327Z,172.43
2019-03-19T05:26:52.359Z,167.73
2019-03-19T05:29:19.905Z,176.00
2019-03-19T05:31:47.465Z,182.57
2019-03-19T05:34:15.127Z,175.43
2019-03-19T05:36:43.069Z,177.27
2019-03-19T05:39:10.627Z,174.70
2019-03-19T05:41:38.220Z,157.13
2019-03-19T05:44:05.880Z,151.67
2019-03-19T05:46:34.221Z,132.03
2019-03-19T05:49:01.687Z,128.27
2019-03-19T05:51:29.275Z,123.00
2019-03-19T05:53:56.902Z,118.63
2019-03-19T05:56:24.552Z,133.57
2019-03-19T05:58:52.320Z,125.60
2019-03-19T06:01:19.822Z,126.43
2019-03-19T06:03:48.341Z,122.47
2019-03-19T06:06:15.938Z,121.97
2019-03-19T06:08:43.623Z,124.37
2019-03-19T06:11:11.205Z,121.13
2019-03-19T06:13:38.788Z,131.27
2019-03-19T06:16:06.665Z,148.20
2019-03-19T06:18:35.378Z,166.93
2019-03-19T06:21:03.303Z,172.03
2019-03-19T06:23:31.083Z,162.07
2019-03-19T06:25:58.961Z,172.10
2019-03-19T06:28:26.928Z,183.23
2019-03-19T06:30:54.504Z,183.40
2019-03-19T06:33:22.075Z,183.03
2019-03-19T06:35:49.844Z,183.23
2019-03-19T06:38:17.410Z,167.17
2019-03-19T06:40:44.941Z,167.40
2019-03-19T06:43:12.425Z,170.13
2019-03-19T06:45:40.175Z,151.60
2019-03-19T06:48:08.019Z,145.43
2019-03-19T06:50:44.708Z,128.40
2019-03-19T06:53:04.861Z,110.90
2019-03-19T06:55:32.418Z,92.97
2019-03-19T06:58:10.551Z,93.13
2019-03-19T07:00:30.470Z,104.93
2019-03-19T07:02:58.497Z,134.13
2019-03-19T07:05:26.066Z,118.53
2019-03-19T07:07:53.663Z,83.63
2019-03-19T07:10:21.218Z,85.87
2019-03-19T07:12:48.701Z,58.80
2019-03-19T07:15:16.576Z,49.43
2019-03-19T07:17:44.167Z,45.70
2019-03-19T07:20:12.810Z,51.93
2019-03-19T07:22:40.686Z,42.83
2019-03-19T07:25:08.643Z,40.63
2019-03-19T07:27:36.109Z,33.13
2019-03-19T07:30:05.346Z,29.23
2019-03-19T07:32:33.162Z,41.03
2019-03-19T07:35:00.754Z,25.53
2019-03-19T07:37:28.282Z,26.77
2019-03-19T07:39:56.183Z,29.37
2019-03-19T07:42:23.752Z,23.67
2019-03-19T07:44:51.333Z,32.63
2019-03-19T07:47:18.965Z,29.53
2019-03-19T07:49:46.562Z,32.40
2019-03-19T07:52:14.131Z,24.50
2019-03-19T07:54:41.673Z,25.73
2019-03-19T07:57:09.246Z,27.20
2019-03-19T07:59:36.817Z,29.17
2019-03-19T08:02:04.359Z,26.63
2019-03-19T08:04:32.901Z,23.07
2019-03-19T08:07:01.292Z,22.27
2019-03-19T08:09:29.075Z,30.77
2019-03-19T08:11:56.664Z,24.87
2019-03-19T08:14:24.207Z,22.97
2019-03-19T08:16:53.245Z,26.30
2019-03-19T08:19:21.105Z,20.37
2019-03-19T08:21:48.856Z,20.00
2019-03-19T08:24:16.297Z,20.87
2019-03-19T08:26:44.481Z,20.17
2019-03-19T08:29:12.375Z,18.37
2019-03-19T08:31:39.941Z,20.57
2019-03-19T08:34:07.777Z,17.50
2019-03-19T08:36:35.632Z,20.07
2019-03-19T08:39:04.518Z,22.67
2019-03-19T08:41:32.409Z,19.63
2019-03-19T08:43:59.945Z,15.93
2019-03-19T08:46:27.430Z,17.20
2019-03-19T08:48:55.002Z,18.30
2019-03-19T08:51:22.863Z,25.73
2019-03-19T08:53:51.105Z,17.03
2019-03-19T08:56:18.901Z,15.63
2019-03-19T08:58:46.432Z,22.93
2019-03-19T09:01:13.994Z,15.70
2019-03-19T09:03:41.569Z,21.57
2019-03-19T09:06:09.496Z,14.53
2019-03-19T09:08:36.999Z,16.33
2019-03-19T09:11:04.839Z,15.40
2019-03-19T09:13:32.700Z,15.77
2019-03-19T09:16:00.230Z,14.13
2019-03-19T09:18:28.293Z,14.33
2019-03-19T09:20:56.117Z,12.80
2019-03-19T09:23:23.708Z,13.10
2019-03-19T09:25:51.221Z,11.60
2019-03-19T09:28:18.849Z,13.33
2019-03-19T09:30:46.442Z,13.77
2019-03-19T09:33:14.403Z,16.43
2019-03-19T09:35:41.974Z,13.60
2019-03-19T09:38:09.580Z,16.57
2019-03-19T09:40:37.140Z,21.57
2019-03-19T09:43:05.022Z,13.57
2019-03-19T09:45:32.612Z,13.73
2019-03-19T09:48:00.244Z,16.00
2019-03-19T09:50:28.132Z,12.73
2019-03-19T09:52:55.593Z,14.30
2019-03-19T09:55:23.094Z,9.63
2019-03-19T09:57:50.686Z,8.83
2019-03-19T10:00:18.400Z,14.07
2019-03-19T10:02:45.964Z,15.33
2019-03-19T10:05:13.517Z,12.97
2019-03-19T10:07:41.290Z,10.90
2019-03-19T10:10:09.765Z,13.60
2019-03-19T10:12:37.400Z,11.37
2019-03-19T10:15:05.482Z,16.23
2019-03-19T10:17:33.387Z,12.13
2019-03-19T10:20:01.029Z,14.40
2019-03-19T10:22:46.129Z,13.43
2019-03-19T10:25:13.991Z,9.10
2019-03-19T10:28:24.560Z,11.97
2019-03-19T10:30:52.019Z,10.10
2019-03-19T10:33:19.544Z,12.17
2019-03-19T10:36:30.409Z,10.10
2019-03-19T10:38:58.376Z,10.70
2019-03-19T10:41:43.091Z,9.73
2019-03-19T10:44:11.001Z,11.67
2019-03-19T10:46:38.583Z,8.77
2019-03-19T10:49:06.075Z,7.97
2019-03-19T10:51:35.214Z,7.27
2019-03-19T10:54:06.663Z,10.80
2019-03-19T10:56:34.403Z,11.30
2019-03-19T10:59:02.674Z,12.47
2019-03-19T11:01:30.398Z,8.83
2019-03-19T11:03:57.956Z,12.37
2019-03-19T11:06:25.481Z,8.80
2019-03-19T11:08:54.147Z,13.43
2019-03-19T11:11:21.726Z,9.80
2019-03-19T11:13:49.242Z,8.70
2019-03-19T11:16:17.970Z,14.53
2019-03-19T11:18:45.483Z,11.63
2019-03-19T11:21:12.959Z,8.90
2019-03-19T11:23:41.556Z,4.87
2019-03-19T11:26:09.252Z,5.30
2019-03-19T11:28:36.837Z,7.13
2019-03-19T11:31:04.484Z,8.60
2019-03-19T11:33:32.407Z,8.80
2019-03-19T11:35:59.951Z,9.30
2019-03-19T11:38:27.596Z,10.30
2019-03-19T11:40:55.574Z,7.43
2019-03-19T11:43:23.062Z,6.20
2019-03-19T11:45:51.734Z,6.23
2019-03-19T11:48:20.457Z,5.50
2019-03-19T11:50:48.349Z,8.60
2019-03-19T11:53:16.002Z,7.10
2019-03-19T11:55:43.552Z,7.70
2019-03-19T11:58:11.091Z,5.80
2019-03-19T12:00:41.257Z,8.23
2019-03-19T12:03:15.533Z,9.03
2019-03-19T12:05:38.164Z,8.33
2019-03-19T12:08:06.044Z,8.80
2019-03-19T12:10:33.629Z,9.33
2019-03-19T12:13:01.080Z,5.70
2019-03-19T12:15:28.701Z,5.77
2019-03-19T12:17:56.590Z,6.07
2019-03-19T12:20:24.394Z,5.80
2019-03-19T12:22:51.968Z,5.33
2019-03-19T12:25:19.508Z,5.13
2019-03-19T12:27:47.066Z,6.30
2019-03-19T12:30:22.258Z,6.73
2019-03-19T12:32:44.448Z,9.07
2019-03-19T12:35:12.019Z,7.67
2019-03-19T12:37:40.613Z,6.93
2019-03-19T12:40:09.329Z,6.00
2019-03-19T12:42:36.914Z,8.77
2019-03-19T12:45:05.274Z,10.23
2019-03-19T12:47:33.210Z,7.83
2019-03-19T12:50:00.750Z,7.13
2019-03-19T12:52:28.304Z,8.33
2019-03-19T12:54:55.950Z,8.77
2019-03-19T12:57:23.486Z,7.40
2019-03-19T12:59:51.186Z,8.80
2019-03-19T13:02:19.587Z,5.33
2019-03-19T13:04:47.427Z,6.17
2019-03-19T13:07:15.005Z,4.30
2019-03-19T13:09:42.544Z,3.40
2019-03-19T13:12:10.017Z,6.00
2019-03-19T13:14:38.688Z,7.57
2019-03-19T13:17:06.584Z,6.23
2019-03-19T13:19:34.516Z,8.00
2019-03-19T13:22:02.280Z,8.17
2019-03-19T13:24:29.821Z,5.53
2019-03-19T13:26:58.582Z,5.77
2019-03-19T13:29:26.426Z,8.37
2019-03-19T13:31:53.970Z,6.23
2019-03-19T13:34:21.637Z,7.62
2019-03-19T13:36:49.490Z,6.10
2019-03-19T13:39:17.068Z,11.20
2019-03-19T13:41:44.912Z,9.60
2019-03-19T13:44:12.469Z,8.57
2019-03-19T13:46:40.063Z,8.73
2019-03-19T13:49:07.989Z,6.77
2019-03-19T13:51:35.460Z,5.17
2019-03-19T13:54:03.821Z,8.77
2019-03-19T13:56:31.342Z,7.87
2019-03-19T13:58:59.217Z,6.53
2019-03-19T14:01:26.942Z,6.53
2019-03-19T14:03:54.508Z,7.77
2019-03-19T14:06:22.028Z,13.10
2019-03-19T14:08:49.496Z,5.53
2019-03-19T14:11:17.357Z,10.57
2019-03-19T14:13:45.223Z,8.70
2019-03-19T14:16:13.001Z,11.80
2019-03-19T14:18:40.574Z,7.03
2019-03-19T14:21:08.120Z,7.23
2019-03-19T14:23:35.683Z,9.03
2019-03-19T14:26:03.467Z,5.37
2019-03-19T14:28:30.956Z,8.40
2019-03-19T14:31:08.055Z,8.00
2019-03-19T14:33:27.890Z,4.20
2019-03-19T14:35:55.499Z,11.20
2019-03-19T14:38:23.058Z,7.67
2019-03-19T14:40:50.570Z,6.03
2019-03-19T14:43:18.152Z,6.90
2019-03-19T14:45:45.700Z,6.40
2019-03-19T14:48:13.282Z,8.83
2019-03-19T14:50:40.962Z,6.50
2019-03-19T14:53:08.543Z,5.33
2019-03-19T14:55:36.492Z,8.10
2019-03-19T14:58:04.664Z,6.90
2019-03-19T15:00:32.685Z,10.43
2019-03-19T15:03:00.181Z,6.90
2019-03-19T15:05:28.060Z,8.47
2019-03-19T15:07:55.579Z,8.43
2019-03-19T15:10:23.748Z,6.77
2019-03-19T15:12:51.290Z,7.13
2019-03-19T15:15:18.902Z,7.37
2019-03-19T15:17:46.787Z,6.47
2019-03-19T15:20:15.390Z,7.03
2019-03-19T15:22:42.958Z,6.13
2019-03-19T15:25:12.027Z,7.17
2019-03-19T15:27:39.636Z,7.60
2019-03-19T15:30:07.257Z,6.97
2019-03-19T15:32:34.765Z,8.37
2019-03-19T15:35:02.367Z,6.17
2019-03-19T15:37:29.929Z,8.37
2019-03-19T15:39:57.493Z,6.23
2019-03-19T15:42:25.040Z,5.73
2019-03-19T15:44:52.600Z,7.90
2019-03-19T15:47:21.280Z,6.60
2019-03-19T15:49:48.774Z,7.07
2019-03-19T15:52:16.415Z,5.43
2019-03-19T15:54:44.014Z,10.07
2019-03-19T15:57:11.606Z,6.40
2019-03-19T15:59:39.143Z,8.63
2019-03-19T16:02:06.729Z,8.40
2019-03-19T16:04:34.307Z,7.50
2019-03-19T16:07:01.955Z,5.80
2019-03-19T16:09:29.501Z,6.13
2019-03-19T16:11:57.361Z,8.23
2019-03-19T16:14:24.917Z,6.40
2019-03-19T16:16:52.509Z,7.50
2019-03-19T16:19:20.100Z,6.27
2019-03-19T16:21:47.771Z,5.67
2019-03-19T16:24:15.380Z,5.47
2019-03-19T16:26:42.945Z,8.37
2019-03-19T16:29:10.532Z,7.53
2019-03-19T16:31:38.082Z,6.50
2019-03-19T16:34:06.048Z,8.27
2019-03-19T16:36:34.751Z,8.47
2019-03-19T16:39:02.268Z,7.47
2019-03-19T16:41:29.839Z,10.23
2019-03-19T16:43:57.378Z,8.67
2019-03-19T16:46:24.966Z,11.30
2019-03-19T16:48:52.519Z,8.70
2019-03-19T16:51:20.077Z,9.27
2019-03-19T16:53:47.564Z,9.73
2019-03-19T16:56:15.143Z,12.60
2019-03-19T16:58:43.038Z,11.50
2019-03-19T17:01:10.541Z,12.47
2019-03-19T17:03:38.365Z,17.37
2019-03-19T17:06:06.332Z,13.23
2019-03-19T17:08:33.938Z,13.50
2019-03-19T17:11:01.586Z,10.70
2019-03-19T17:13:29.183Z,12.80
2019-03-19T17:15:56.769Z,12.80
2019-03-19T17:18:24.627Z,14.07
2019-03-19T17:20:52.121Z,15.10
2019-03-19T17:23:20.091Z,12.87
2019-03-19T17:25:48.780Z,15.93
2019-03-19T17:28:22.353Z,9.60
2019-03-19T17:30:46.115Z,10.00
2019-03-19T17:33:13.810Z,9.87
2019-03-19T17:35:41.742Z,11.63
2019-03-19T17:38:09.315Z,13.47
2019-03-19T17:40:41.495Z,12.20
2019-03-19T17:43:06.599Z,10.87
2019-03-19T17:45:34.194Z,8.17
2019-03-19T17:48:02.143Z,13.93
2019-03-19T17:50:29.759Z,12.10
2019-03-19T17:52:57.388Z,11.13
2019-03-19T17:55:24.918Z,14.07
2019-03-19T17:57:52.450Z,13.70
2019-03-19T18:00:22.485Z,11.97
2019-03-19T18:02:50.310Z,15.17
2019-03-19T18:05:17.890Z,16.97
2019-03-19T18:07:45.438Z,11.63
2019-03-19T18:10:13.124Z,12.30
2019-03-19T18:12:41.023Z,13.20
2019-03-19T18:15:08.586Z,9.93
2019-03-19T18:17:36.182Z,11.40
2019-03-19T18:20:04.298Z,14.77
2019-03-19T18:22:31.859Z,10.80
2019-03-19T18:24:59.450Z,13.97
2019-03-19T18:27:27.006Z,10.20
2019-03-19T18:29:55.580Z,12.20
2019-03-19T18:32:23.235Z,14.27
2019-03-19T18:34:51.155Z,13.83
2019-03-19T18:37:18.800Z,12.73
2019-03-19T18:39:46.356Z,15.07
2019-03-19T18:42:13.916Z,13.77
2019-03-19T18:44:41.465Z,10.63
2019-03-19T18:47:09.030Z,12.87
2019-03-19T18:49:36.482Z,14.30
2019-03-19T18:52:04.054Z,15.27
2019-03-19T18:54:31.996Z,17.57
2019-03-19T18:56:59.571Z,16.77
2019-03-19T18:59:28.138Z,15.47
2019-03-19T19:01:55.678Z,13.47
2019-03-19T19:04:23.172Z,14.03
2019-03-19T19:06:52.587Z,16.77
2019-03-19T19:09:20.151Z,14.97
2019-03-19T19:11:47.709Z,17.20
2019-03-19T19:14:15.269Z,14.27
2019-03-19T19:16:42.943Z,12.90
2019-03-19T19:19:10.764Z,14.67
2019-03-19T19:21:38.307Z,22.73
2019-03-19T19:24:07.272Z,17.50
2019-03-19T19:26:34.822Z,18.17
2019-03-19T19:29:02.690Z,17.67
2019-03-19T19:31:30.628Z,18.90
2019-03-19T19:33:58.503Z,30.37
2019-03-19T19:36:26.150Z,20.03
2019-03-19T19:38:54.036Z,19.93
2019-03-19T19:41:21.645Z,19.33
2019-03-19T19:43:49.179Z,18.00
2019-03-19T19:46:16.739Z,21.23
2019-03-19T19:48:44.274Z,21.93
2019-03-19T19:51:11.878Z,27.33
2019-03-19T19:53:40.481Z,31.73
2019-03-19T19:56:08.327Z,19.80
2019-03-19T19:58:36.244Z,21.33
2019-03-19T20:01:03.774Z,21.20
2019-03-19T20:03:31.365Z,18.67
2019-03-19T20:05:58.910Z,17.47
2019-03-19T20:08:26.515Z,19.30
2019-03-19T20:10:54.116Z,19.57
2019-03-19T20:13:22.000Z,24.67
2019-03-19T20:15:49.600Z,23.83
2019-03-19T20:18:17.144Z,20.07
2019-03-19T20:20:44.643Z,21.80
2019-03-19T20:23:12.516Z,19.53
2019-03-19T20:25:40.091Z,19.43
2019-03-19T20:28:07.629Z,19.50
2019-03-19T20:30:35.303Z,19.43
2019-03-19T20:33:02.913Z,24.83
2019-03-19T20:35:30.548Z,21.60
2019-03-19T20:38:02.977Z,21.17
2019-03-19T20:40:30.821Z,18.50
2019-03-19T20:42:58.620Z,17.13
2019-03-19T20:45:26.202Z,20.50
2019-03-19T20:47:53.771Z,14.63
2019-03-19T20:50:22.461Z,15.53
2019-03-19T20:52:50.036Z,18.43
2019-03-19T20:55:17.588Z,16.33
2019-03-19T20:57:45.189Z,18.40
2019-03-19T21:00:19.290Z,21.87
2019-03-19T21:02:46.924Z,24.43
2019-03-19T21:05:14.435Z,23.30
2019-03-19T21:07:41.995Z,23.00
2019-03-19T21:10:11.222Z,22.27
2019-03-19T21:12:39.226Z,21.03
2019-03-19T21:15:07.150Z,21.07
2019-03-19T21:17:34.959Z,25.63
2019-03-19T21:20:02.561Z,19.47
2019-03-19T21:22:30.163Z,19.50
2019-03-19T21:24:57.726Z,20.40
2019-03-19T21:27:25.306Z,22.90
2019-03-19T21:32:30.639Z,21.87
2019-03-19T21:34:58.931Z,25.03
2019-03-19T21:37:26.486Z,23.10
2019-03-19T21:39:54.092Z,22.73
2019-03-19T21:42:21.612Z,24.27
2019-03-19T21:44:49.201Z,21.80
2019-03-19T21:47:16.730Z,33.77
2019-03-19T21:49:45.296Z,37.33
2019-03-19T21:52:13.251Z,30.50
2019-03-19T21:54:41.214Z,28.43
2019-03-19T21:57:09.004Z,21.83
2019-03-19T21:59:36.704Z,20.00
2019-03-19T22:02:04.308Z,21.07
2019-03-19T22:04:32.237Z,20.70
2019-03-19T22:06:59.792Z,19.90
2019-03-19T22:09:27.644Z,20.60
2019-03-19T22:11:55.232Z,20.43
2019-03-19T22:14:22.749Z,20.57
2019-03-19T22:16:50.570Z,26.23
2019-03-19T22:19:19.698Z,27.53
2019-03-19T22:21:47.254Z,29.00
2019-03-19T22:24:14.791Z,28.57
2019-03-19T22:26:42.470Z,30.20
2019-03-19T22:29:12.578Z,32.77
2019-03-19T22:31:40.737Z,29.27
2019-03-19T22:34:14.168Z,23.50
2019-03-19T22:36:38.318Z,24.43
2019-03-19T22:39:06.610Z,26.50
2019-03-19T22:41:34.149Z,24.50
2019-03-19T22:44:01.723Z,24.47
2019-03-19T22:46:29.570Z,23.27
2019-03-19T22:48:57.031Z,23.07
2019-03-19T22:51:24.583Z,25.17
2019-03-19T22:53:52.142Z,22.30
2019-03-19T22:56:21.054Z,23.20
2019-03-19T22:58:48.630Z,23.77
2019-03-19T23:01:16.513Z,25.77
2019-03-19T23:03:44.133Z,24.40
2019-03-19T23:06:11.696Z,23.10
2019-03-19T23:08:39.546Z,20.50
2019-03-19T23:11:07.122Z,19.03
2019-03-19T23:13:34.563Z,22.10
2019-03-19T23:16:02.474Z,17.93
2019-03-19T23:18:30.039Z,20.87
2019-03-19T23:20:57.955Z,20.97
2019-03-19T23:23:25.525Z,21.53
2019-03-19T23:25:53.289Z,19.57
2019-03-19T23:28:20.846Z,21.23
2019-03-19T23:30:48.392Z,24.97
2019-03-19T23:33:15.960Z,22.90
2019-03-19T23:35:43.469Z,24.80
2019-03-19T23:38:12.269Z,20.33
2019-03-19T23:40:40.076Z,26.10
2019-03-19T23:43:07.630Z,23.47
2019-03-19T23:45:35.166Z,22.27
2019-03-19T23:48:03.090Z,21.50
2019-03-19T23:50:30.919Z,18.07
2019-03-19T23:52:58.521Z,18.27
2019-03-19T23:55:26.057Z,19.70
2019-03-19T23:57:53.624Z,19.43
